sensor_id;sensor_type;location;lat;lon;timestamp;P1;durP1;ratioP1;P2;durP2;ratioP2
12511;SDS011;6321;53.798;10.382;2023-05-10T00:02:13;6.43;;;3.63;;
12511;SDS011;6321;53.798;10.382;2023-05-10T00:04:39;4.00;;;3.70;;
12511;SDS011;6321;53.798;10.382;2023-05-10T00:07:05;5.10;;;3.80;;
12511;SDS011;6321;53.798;10.382;2023-05-10T00:09:31;5.07;;;4.23;;
12511;SDS011;6321;53.798;10.382;2023-05-10T00:11:57;4.37;;;3.97;;
12511;SDS011;6321;53.798;10.382;2023-05-10T00:14:23;4.57;;;4.00;;
12511;SDS011;6321;53.798;10.382;2023-05-10T00:16:50;7.23;;;4.30;;
12511;SDS011;6321;53.798;10.382;2023-05-10T00:19:16;6.63;;;3.77;;
12511;SDS011;6321;53.798;10.382;2023-05-10T00:21:42;5.87;;;4.10;;
12511;SDS011;6321;53.798;10.382;2023-05-10T00:24:08;5.87;;;3.73;;
12511;SDS011;6321;53.798;10.382;2023-05-10T00:26:34;4.57;;;4.00;;
12511;SDS011;6321;53.798;10.382;2023-05-10T00:29:00;4.97;;;3.97;;
12511;SDS011;6321;53.798;10.382;2023-05-10T00:31:26;8.23;;;3.93;;
12511;SDS011;6321;53.798;10.382;2023-05-10T00:33:52;5.63;;;4.10;;
12511;SDS011;6321;53.798;10.382;2023-05-10T00:36:18;5.97;;;3.93;;
12511;SDS011;6321;53.798;10.382;2023-05-10T00:38:44;5.70;;;4.13;;
12511;SDS011;6321;53.798;10.382;2023-05-10T00:41:10;6.77;;;3.73;;
12511;SDS011;6321;53.798;10.382;2023-05-10T00:43:36;7.40;;;3.87;;
12511;SDS011;6321;53.798;10.382;2023-05-10T00:46:02;5.20;;;4.13;;
12511;SDS011;6321;53.798;10.382;2023-05-10T00:48:29;5.23;;;3.80;;
12511;SDS011;6321;53.798;10.382;2023-05-10T00:50:55;4.90;;;3.87;;
12511;SDS011;6321;53.798;10.382;2023-05-10T00:53:21;4.77;;;3.90;;
12511;SDS011;6321;53.798;10.382;2023-05-10T00:55:47;5.13;;;4.00;;
12511;SDS011;6321;53.798;10.382;2023-05-10T00:58:13;5.23;;;3.93;;
12511;SDS011;6321;53.798;10.382;2023-05-10T01:00:41;6.30;;;3.90;;
12511;SDS011;6321;53.798;10.382;2023-05-10T01:03:08;5.13;;;3.80;;
12511;SDS011;6321;53.798;10.382;2023-05-10T01:05:34;6.60;;;4.37;;
12511;SDS011;6321;53.798;10.382;2023-05-10T01:08:00;5.43;;;3.77;;
12511;SDS011;6321;53.798;10.382;2023-05-10T01:10:27;6.17;;;4.20;;
12511;SDS011;6321;53.798;10.382;2023-05-10T01:12:53;4.73;;;4.00;;
12511;SDS011;6321;53.798;10.382;2023-05-10T01:15:19;4.47;;;3.40;;
12511;SDS011;6321;53.798;10.382;2023-05-10T01:17:46;4.20;;;3.80;;
12511;SDS011;6321;53.798;10.382;2023-05-10T01:20:12;5.60;;;4.07;;
12511;SDS011;6321;53.798;10.382;2023-05-10T01:35:10;5.23;;;4.33;;
12511;SDS011;6321;53.798;10.382;2023-05-10T01:37:41;3.83;;;3.50;;
12511;SDS011;6321;53.798;10.382;2023-05-10T01:40:14;4.50;;;4.07;;
12511;SDS011;6321;53.798;10.382;2023-05-10T01:42:46;8.40;;;4.10;;
12511;SDS011;6321;53.798;10.382;2023-05-10T01:45:15;4.67;;;3.90;;
12511;SDS011;6321;53.798;10.382;2023-05-10T01:47:43;6.07;;;4.40;;
12511;SDS011;6321;53.798;10.382;2023-05-10T01:50:11;5.60;;;4.07;;
12511;SDS011;6321;53.798;10.382;2023-05-10T01:52:44;6.10;;;4.57;;
12511;SDS011;6321;53.798;10.382;2023-05-10T01:55:14;6.40;;;3.70;;
12511;SDS011;6321;53.798;10.382;2023-05-10T01:57:42;4.30;;;3.90;;
12511;SDS011;6321;53.798;10.382;2023-05-10T02:00:09;4.93;;;4.17;;
12511;SDS011;6321;53.798;10.382;2023-05-10T02:02:39;6.03;;;4.23;;
12511;SDS011;6321;53.798;10.382;2023-05-10T02:05:07;6.87;;;4.20;;
12511;SDS011;6321;53.798;10.382;2023-05-10T02:07:34;6.10;;;4.23;;
12511;SDS011;6321;53.798;10.382;2023-05-10T02:10:01;5.90;;;4.03;;
12511;SDS011;6321;53.798;10.382;2023-05-10T02:12:28;4.90;;;4.40;;
12511;SDS011;6321;53.798;10.382;2023-05-10T02:14:55;6.40;;;4.57;;
12511;SDS011;6321;53.798;10.382;2023-05-10T02:17:22;9.03;;;4.60;;
12511;SDS011;6321;53.798;10.382;2023-05-10T02:19:48;4.50;;;4.10;;
12511;SDS011;6321;53.798;10.382;2023-05-10T02:22:15;5.73;;;4.60;;
12511;SDS011;6321;53.798;10.382;2023-05-10T02:24:41;7.13;;;4.90;;
12511;SDS011;6321;53.798;10.382;2023-05-10T02:27:09;6.83;;;4.67;;
12511;SDS011;6321;53.798;10.382;2023-05-10T02:29:35;4.70;;;4.20;;
12511;SDS011;6321;53.798;10.382;2023-05-10T02:32:02;6.80;;;4.47;;
12511;SDS011;6321;53.798;10.382;2023-05-10T02:34:28;7.10;;;4.53;;
12511;SDS011;6321;53.798;10.382;2023-05-10T02:36:55;6.67;;;4.90;;
12511;SDS011;6321;53.798;10.382;2023-05-10T02:39:21;7.00;;;4.57;;
12511;SDS011;6321;53.798;10.382;2023-05-10T02:41:48;6.17;;;3.93;;
12511;SDS011;6321;53.798;10.382;2023-05-10T02:44:15;6.30;;;4.27;;
12511;SDS011;6321;53.798;10.382;2023-05-10T02:46:43;4.50;;;4.10;;
12511;SDS011;6321;53.798;10.382;2023-05-10T02:49:09;5.90;;;4.70;;
12511;SDS011;6321;53.798;10.382;2023-05-10T02:51:35;5.03;;;4.00;;
12511;SDS011;6321;53.798;10.382;2023-05-10T02:54:10;4.37;;;3.97;;
12511;SDS011;6321;53.798;10.382;2023-05-10T02:56:40;4.63;;;4.23;;
12511;SDS011;6321;53.798;10.382;2023-05-10T02:59:08;9.43;;;4.53;;
12511;SDS011;6321;53.798;10.382;2023-05-10T03:01:34;4.43;;;4.00;;
12511;SDS011;6321;53.798;10.382;2023-05-10T03:04:00;7.57;;;4.80;;
12511;SDS011;6321;53.798;10.382;2023-05-10T03:06:26;6.13;;;4.83;;
12511;SDS011;6321;53.798;10.382;2023-05-10T03:08:52;5.67;;;5.00;;
12511;SDS011;6321;53.798;10.382;2023-05-10T03:14:10;6.17;;;4.90;;
12511;SDS011;6321;53.798;10.382;2023-05-10T03:16:42;7.23;;;4.67;;
12511;SDS011;6321;53.798;10.382;2023-05-10T03:19:12;6.60;;;4.57;;
12511;SDS011;6321;53.798;10.382;2023-05-10T03:21:41;7.20;;;4.73;;
12511;SDS011;6321;53.798;10.382;2023-05-10T03:24:09;6.07;;;5.47;;
12511;SDS011;6321;53.798;10.382;2023-05-10T03:26:37;5.87;;;4.30;;
12511;SDS011;6321;53.798;10.382;2023-05-10T03:29:04;5.17;;;4.60;;
12511;SDS011;6321;53.798;10.382;2023-05-10T03:31:30;7.07;;;5.40;;
12511;SDS011;6321;53.798;10.382;2023-05-10T03:33:56;5.10;;;4.43;;
12511;SDS011;6321;53.798;10.382;2023-05-10T03:36:22;7.50;;;4.63;;
12511;SDS011;6321;53.798;10.382;2023-05-10T03:38:48;5.37;;;4.87;;
12511;SDS011;6321;53.798;10.382;2023-05-10T03:41:14;5.67;;;5.07;;
12511;SDS011;6321;53.798;10.382;2023-05-10T03:43:40;6.23;;;4.80;;
12511;SDS011;6321;53.798;10.382;2023-05-10T03:46:06;6.37;;;5.07;;
12511;SDS011;6321;53.798;10.382;2023-05-10T03:48:32;5.70;;;4.80;;
12511;SDS011;6321;53.798;10.382;2023-05-10T03:50:58;6.10;;;5.07;;
12511;SDS011;6321;53.798;10.382;2023-05-10T03:53:24;9.67;;;5.37;;
12511;SDS011;6321;53.798;10.382;2023-05-10T03:55:51;7.17;;;5.00;;
12511;SDS011;6321;53.798;10.382;2023-05-10T03:58:17;7.23;;;5.13;;
12511;SDS011;6321;53.798;10.382;2023-05-10T04:00:43;5.20;;;4.70;;
12511;SDS011;6321;53.798;10.382;2023-05-10T04:03:10;5.10;;;4.60;;
12511;SDS011;6321;53.798;10.382;2023-05-10T04:05:36;5.80;;;5.20;;
12511;SDS011;6321;53.798;10.382;2023-05-10T04:08:03;5.47;;;4.97;;
12511;SDS011;6321;53.798;10.382;2023-05-10T04:10:29;9.77;;;5.47;;
12511;SDS011;6321;53.798;10.382;2023-05-10T04:12:55;5.50;;;5.00;;
12511;SDS011;6321;53.798;10.382;2023-05-10T04:15:21;8.67;;;5.80;;
12511;SDS011;6321;53.798;10.382;2023-05-10T04:17:47;7.27;;;5.27;;
12511;SDS011;6321;53.798;10.382;2023-05-10T04:20:13;6.93;;;4.97;;
12511;SDS011;6321;53.798;10.382;2023-05-10T04:22:39;5.37;;;4.87;;
12511;SDS011;6321;53.798;10.382;2023-05-10T04:25:05;7.80;;;5.60;;
12511;SDS011;6321;53.798;10.382;2023-05-10T04:27:32;6.03;;;5.17;;
12511;SDS011;6321;53.798;10.382;2023-05-10T04:29:58;7.20;;;5.10;;
12511;SDS011;6321;53.798;10.382;2023-05-10T04:32:24;6.60;;;5.07;;
12511;SDS011;6321;53.798;10.382;2023-05-10T04:34:50;5.83;;;5.07;;
12511;SDS011;6321;53.798;10.382;2023-05-10T04:37:17;6.27;;;5.33;;
12511;SDS011;6321;53.798;10.382;2023-05-10T04:39:43;6.53;;;5.20;;
12511;SDS011;6321;53.798;10.382;2023-05-10T04:42:09;6.60;;;5.37;;
12511;SDS011;6321;53.798;10.382;2023-05-10T04:44:35;8.20;;;5.13;;
12511;SDS011;6321;53.798;10.382;2023-05-10T04:47:01;5.57;;;4.80;;
12511;SDS011;6321;53.798;10.382;2023-05-10T04:49:28;5.60;;;4.97;;
12511;SDS011;6321;53.798;10.382;2023-05-10T04:51:54;7.20;;;5.00;;
12511;SDS011;6321;53.798;10.382;2023-05-10T04:54:20;8.40;;;5.50;;
12511;SDS011;6321;53.798;10.382;2023-05-10T04:56:46;5.87;;;5.20;;
12511;SDS011;6321;53.798;10.382;2023-05-10T04:59:12;6.90;;;5.60;;
12511;SDS011;6321;53.798;10.382;2023-05-10T05:01:38;6.33;;;5.57;;
12511;SDS011;6321;53.798;10.382;2023-05-10T05:04:04;5.40;;;4.90;;
12511;SDS011;6321;53.798;10.382;2023-05-10T05:06:30;5.07;;;4.57;;
12511;SDS011;6321;53.798;10.382;2023-05-10T05:08:56;5.87;;;4.97;;
12511;SDS011;6321;53.798;10.382;2023-05-10T05:11:22;12.80;;;5.47;;
12511;SDS011;6321;53.798;10.382;2023-05-10T05:13:48;7.87;;;5.13;;
12511;SDS011;6321;53.798;10.382;2023-05-10T05:16:14;5.43;;;4.97;;
12511;SDS011;6321;53.798;10.382;2023-05-10T05:18:40;8.30;;;5.30;;
12511;SDS011;6321;53.798;10.382;2023-05-10T05:21:16;7.37;;;5.70;;
12511;SDS011;6321;53.798;10.382;2023-05-10T05:23:42;6.43;;;5.40;;
12511;SDS011;6321;53.798;10.382;2023-05-10T05:26:08;5.67;;;5.13;;
12511;SDS011;6321;53.798;10.382;2023-05-10T05:28:34;7.00;;;5.33;;
12511;SDS011;6321;53.798;10.382;2023-05-10T05:31:02;7.43;;;5.87;;
12511;SDS011;6321;53.798;10.382;2023-05-10T05:33:28;6.00;;;5.40;;
12511;SDS011;6321;53.798;10.382;2023-05-10T05:35:54;7.63;;;5.13;;
12511;SDS011;6321;53.798;10.382;2023-05-10T05:38:20;5.53;;;4.90;;
12511;SDS011;6321;53.798;10.382;2023-05-10T05:40:46;6.73;;;5.00;;
12511;SDS011;6321;53.798;10.382;2023-05-10T05:43:12;6.13;;;5.00;;
12511;SDS011;6321;53.798;10.382;2023-05-10T05:45:38;6.17;;;5.17;;
12511;SDS011;6321;53.798;10.382;2023-05-10T05:48:04;6.77;;;4.83;;
12511;SDS011;6321;53.798;10.382;2023-05-10T05:50:30;7.20;;;5.27;;
12511;SDS011;6321;53.798;10.382;2023-05-10T05:52:56;6.40;;;5.23;;
12511;SDS011;6321;53.798;10.382;2023-05-10T05:55:22;6.97;;;5.00;;
12511;SDS011;6321;53.798;10.382;2023-05-10T05:57:49;5.80;;;5.20;;
12511;SDS011;6321;53.798;10.382;2023-05-10T06:00:15;5.77;;;5.07;;
12511;SDS011;6321;53.798;10.382;2023-05-10T06:02:41;5.57;;;4.90;;
12511;SDS011;6321;53.798;10.382;2023-05-10T06:05:07;5.50;;;5.00;;
12511;SDS011;6321;53.798;10.382;2023-05-10T06:07:33;6.60;;;5.47;;
12511;SDS011;6321;53.798;10.382;2023-05-10T06:09:59;7.40;;;4.73;;
12511;SDS011;6321;53.798;10.382;2023-05-10T06:12:25;5.50;;;4.60;;
12511;SDS011;6321;53.798;10.382;2023-05-10T06:14:51;5.83;;;4.63;;
12511;SDS011;6321;53.798;10.382;2023-05-10T06:17:17;5.60;;;4.67;;
12511;SDS011;6321;53.798;10.382;2023-05-10T06:19:43;6.50;;;5.40;;
12511;SDS011;6321;53.798;10.382;2023-05-10T06:22:08;7.03;;;5.80;;
12511;SDS011;6321;53.798;10.382;2023-05-10T06:24:34;6.17;;;5.00;;
12511;SDS011;6321;53.798;10.382;2023-05-10T06:27:00;6.20;;;5.40;;
12511;SDS011;6321;53.798;10.382;2023-05-10T06:29:26;5.70;;;5.10;;
12511;SDS011;6321;53.798;10.382;2023-05-10T06:31:52;6.00;;;5.50;;
12511;SDS011;6321;53.798;10.382;2023-05-10T06:34:19;5.00;;;4.50;;
12511;SDS011;6321;53.798;10.382;2023-05-10T06:36:45;6.87;;;5.10;;
12511;SDS011;6321;53.798;10.382;2023-05-10T06:39:11;5.90;;;5.30;;
12511;SDS011;6321;53.798;10.382;2023-05-10T06:41:37;6.67;;;4.87;;
12511;SDS011;6321;53.798;10.382;2023-05-10T06:44:03;7.73;;;5.53;;
12511;SDS011;6321;53.798;10.382;2023-05-10T06:46:29;6.77;;;5.07;;
12511;SDS011;6321;53.798;10.382;2023-05-10T06:48:55;5.40;;;4.93;;
12511;SDS011;6321;53.798;10.382;2023-05-10T06:51:22;6.07;;;4.83;;
12511;SDS011;6321;53.798;10.382;2023-05-10T06:53:48;5.67;;;5.10;;
12511;SDS011;6321;53.798;10.382;2023-05-10T06:56:14;6.03;;;5.17;;
12511;SDS011;6321;53.798;10.382;2023-05-10T06:58:40;6.33;;;5.33;;
12511;SDS011;6321;53.798;10.382;2023-05-10T07:01:06;5.20;;;4.70;;
12511;SDS011;6321;53.798;10.382;2023-05-10T07:03:32;6.10;;;5.10;;
12511;SDS011;6321;53.798;10.382;2023-05-10T07:06:04;5.73;;;4.50;;
12511;SDS011;6321;53.798;10.382;2023-05-10T07:08:32;7.37;;;5.17;;
12511;SDS011;6321;53.798;10.382;2023-05-10T07:11:04;6.67;;;5.33;;
12511;SDS011;6321;53.798;10.382;2023-05-10T07:13:32;6.40;;;5.00;;
12511;SDS011;6321;53.798;10.382;2023-05-10T07:15:59;5.37;;;4.87;;
12511;SDS011;6321;53.798;10.382;2023-05-10T07:18:27;5.40;;;4.90;;
12511;SDS011;6321;53.798;10.382;2023-05-10T07:20:53;6.73;;;4.83;;
12511;SDS011;6321;53.798;10.382;2023-05-10T07:23:19;6.03;;;5.33;;
12511;SDS011;6321;53.798;10.382;2023-05-10T07:25:46;8.90;;;5.00;;
12511;SDS011;6321;53.798;10.382;2023-05-10T07:28:13;5.67;;;5.17;;
12511;SDS011;6321;53.798;10.382;2023-05-10T07:30:39;5.30;;;4.73;;
12511;SDS011;6321;53.798;10.382;2023-05-10T07:33:05;5.93;;;5.37;;
12511;SDS011;6321;53.798;10.382;2023-05-10T07:35:31;6.03;;;4.90;;
12511;SDS011;6321;53.798;10.382;2023-05-10T07:37:57;6.67;;;4.87;;
12511;SDS011;6321;53.798;10.382;2023-05-10T07:40:22;5.37;;;4.87;;
12511;SDS011;6321;53.798;10.382;2023-05-10T07:42:48;5.50;;;5.00;;
12511;SDS011;6321;53.798;10.382;2023-05-10T07:45:14;4.97;;;4.57;;
12511;SDS011;6321;53.798;10.382;2023-05-10T07:47:40;5.47;;;4.97;;
12511;SDS011;6321;53.798;10.382;2023-05-10T07:50:06;5.77;;;4.77;;
12511;SDS011;6321;53.798;10.382;2023-05-10T07:52:33;5.97;;;4.87;;
12511;SDS011;6321;53.798;10.382;2023-05-10T07:54:58;5.67;;;5.10;;
12511;SDS011;6321;53.798;10.382;2023-05-10T07:57:24;5.10;;;4.60;;
12511;SDS011;6321;53.798;10.382;2023-05-10T07:59:50;5.23;;;4.73;;
12511;SDS011;6321;53.798;10.382;2023-05-10T08:02:16;5.03;;;4.63;;
12511;SDS011;6321;53.798;10.382;2023-05-10T08:04:42;8.13;;;5.20;;
12511;SDS011;6321;53.798;10.382;2023-05-10T08:07:08;5.33;;;4.80;;
12511;SDS011;6321;53.798;10.382;2023-05-10T08:09:34;6.10;;;4.83;;
12511;SDS011;6321;53.798;10.382;2023-05-10T08:12:00;6.87;;;5.17;;
12511;SDS011;6321;53.798;10.382;2023-05-10T08:14:27;5.47;;;4.97;;
12511;SDS011;6321;53.798;10.382;2023-05-10T08:16:54;5.07;;;4.67;;
12511;SDS011;6321;53.798;10.382;2023-05-10T08:19:20;4.97;;;4.57;;
12511;SDS011;6321;53.798;10.382;2023-05-10T08:21:46;6.37;;;5.10;;
12511;SDS011;6321;53.798;10.382;2023-05-10T08:24:12;9.37;;;5.50;;
12511;SDS011;6321;53.798;10.382;2023-05-10T08:26:38;8.93;;;5.97;;
12511;SDS011;6321;53.798;10.382;2023-05-10T08:29:04;6.87;;;4.97;;
12511;SDS011;6321;53.798;10.382;2023-05-10T08:31:30;6.93;;;5.57;;
12511;SDS011;6321;53.798;10.382;2023-05-10T08:33:56;5.50;;;5.10;;
12511;SDS011;6321;53.798;10.382;2023-05-10T08:36:22;6.17;;;5.17;;
12511;SDS011;6321;53.798;10.382;2023-05-10T08:38:52;5.67;;;5.13;;
12511;SDS011;6321;53.798;10.382;2023-05-10T08:41:22;6.93;;;5.00;;
12511;SDS011;6321;53.798;10.382;2023-05-10T08:43:54;7.17;;;5.10;;
12511;SDS011;6321;53.798;10.382;2023-05-10T08:46:20;7.13;;;5.03;;
12511;SDS011;6321;53.798;10.382;2023-05-10T08:48:47;6.20;;;5.57;;
12511;SDS011;6321;53.798;10.382;2023-05-10T08:51:14;6.37;;;5.13;;
12511;SDS011;6321;53.798;10.382;2023-05-10T08:53:41;5.20;;;4.70;;
12511;SDS011;6321;53.798;10.382;2023-05-10T08:56:07;6.03;;;5.43;;
12511;SDS011;6321;53.798;10.382;2023-05-10T08:58:33;6.17;;;5.27;;
12511;SDS011;6321;53.798;10.382;2023-05-10T09:00:59;7.50;;;4.87;;
12511;SDS011;6321;53.798;10.382;2023-05-10T09:03:26;6.10;;;5.00;;
12511;SDS011;6321;53.798;10.382;2023-05-10T09:05:52;6.13;;;5.00;;
12511;SDS011;6321;53.798;10.382;2023-05-10T09:08:18;8.27;;;4.83;;
12511;SDS011;6321;53.798;10.382;2023-05-10T09:10:44;5.13;;;4.60;;
12511;SDS011;6321;53.798;10.382;2023-05-10T09:13:12;5.00;;;4.53;;
12511;SDS011;6321;53.798;10.382;2023-05-10T09:15:40;4.90;;;4.50;;
12511;SDS011;6321;53.798;10.382;2023-05-10T09:18:06;7.83;;;5.00;;
12511;SDS011;6321;53.798;10.382;2023-05-10T09:20:32;6.07;;;5.50;;
12511;SDS011;6321;53.798;10.382;2023-05-10T09:22:58;6.10;;;4.67;;
12511;SDS011;6321;53.798;10.382;2023-05-10T09:25:23;5.93;;;4.83;;
12511;SDS011;6321;53.798;10.382;2023-05-10T09:27:49;5.57;;;4.97;;
12511;SDS011;6321;53.798;10.382;2023-05-10T09:30:16;6.87;;;5.50;;
12511;SDS011;6321;53.798;10.382;2023-05-10T09:32:43;6.27;;;5.30;;
12511;SDS011;6321;53.798;10.382;2023-05-10T09:35:10;5.77;;;5.10;;
12511;SDS011;6321;53.798;10.382;2023-05-10T09:37:38;6.03;;;5.53;;
12511;SDS011;6321;53.798;10.382;2023-05-10T09:40:06;6.73;;;4.90;;
12511;SDS011;6321;53.798;10.382;2023-05-10T09:42:33;5.77;;;5.07;;
12511;SDS011;6321;53.798;10.382;2023-05-10T09:45:02;5.23;;;4.23;;
12511;SDS011;6321;53.798;10.382;2023-05-10T09:47:28;5.70;;;5.17;;
12511;SDS011;6321;53.798;10.382;2023-05-10T09:49:55;9.40;;;4.80;;
12511;SDS011;6321;53.798;10.382;2023-05-10T09:52:28;5.50;;;4.90;;
12511;SDS011;6321;53.798;10.382;2023-05-10T09:54:54;6.00;;;5.13;;
12511;SDS011;6321;53.798;10.382;2023-05-10T09:57:20;5.47;;;5.03;;
12511;SDS011;6321;53.798;10.382;2023-05-10T09:59:46;5.93;;;5.33;;
12511;SDS011;6321;53.798;10.382;2023-05-10T10:02:12;5.97;;;5.40;;
12511;SDS011;6321;53.798;10.382;2023-05-10T10:04:42;7.27;;;6.07;;
12511;SDS011;6321;53.798;10.382;2023-05-10T10:07:08;5.93;;;5.40;;
12511;SDS011;6321;53.798;10.382;2023-05-10T10:09:34;5.70;;;5.20;;
12511;SDS011;6321;53.798;10.382;2023-05-10T10:12:00;6.23;;;5.50;;
12511;SDS011;6321;53.798;10.382;2023-05-10T10:14:27;7.90;;;5.50;;
12511;SDS011;6321;53.798;10.382;2023-05-10T10:16:53;7.17;;;5.40;;
12511;SDS011;6321;53.798;10.382;2023-05-10T10:19:19;6.10;;;5.60;;
12511;SDS011;6321;53.798;10.382;2023-05-10T10:21:45;7.37;;;4.97;;
12511;SDS011;6321;53.798;10.382;2023-05-10T10:24:11;5.77;;;5.30;;
12511;SDS011;6321;53.798;10.382;2023-05-10T10:26:37;7.70;;;5.80;;
12511;SDS011;6321;53.798;10.382;2023-05-10T10:34:26;5.43;;;4.97;;
12511;SDS011;6321;53.798;10.382;2023-05-10T10:36:53;6.97;;;6.27;;
12511;SDS011;6321;53.798;10.382;2023-05-10T10:39:20;6.13;;;5.53;;
12511;SDS011;6321;53.798;10.382;2023-05-10T10:41:55;5.83;;;5.23;;
12511;SDS011;6321;53.798;10.382;2023-05-10T10:49:26;6.10;;;5.50;;
12511;SDS011;6321;53.798;10.382;2023-05-10T10:54:37;5.77;;;5.17;;
12511;SDS011;6321;53.798;10.382;2023-05-10T10:57:12;7.83;;;6.53;;
12511;SDS011;6321;53.798;10.382;2023-05-10T10:59:42;6.27;;;5.43;;
12511;SDS011;6321;53.798;10.382;2023-05-10T11:02:08;7.77;;;5.37;;
12511;SDS011;6321;53.798;10.382;2023-05-10T11:04:41;5.53;;;5.03;;
12511;SDS011;6321;53.798;10.382;2023-05-10T11:07:18;6.90;;;5.60;;
12511;SDS011;6321;53.798;10.382;2023-05-10T11:09:48;7.97;;;5.60;;
12511;SDS011;6321;53.798;10.382;2023-05-10T11:12:13;7.43;;;5.20;;
12511;SDS011;6321;53.798;10.382;2023-05-10T11:14:39;7.90;;;5.27;;
12511;SDS011;6321;53.798;10.382;2023-05-10T11:17:24;6.50;;;5.80;;
12511;SDS011;6321;53.798;10.382;2023-05-10T11:20:06;5.93;;;5.43;;
12511;SDS011;6321;53.798;10.382;2023-05-10T11:22:48;6.03;;;5.47;;
12511;SDS011;6321;53.798;10.382;2023-05-10T11:25:15;9.03;;;6.10;;
12511;SDS011;6321;53.798;10.382;2023-05-10T11:27:41;6.43;;;5.83;;
12511;SDS011;6321;53.798;10.382;2023-05-10T11:30:09;6.60;;;6.00;;
12511;SDS011;6321;53.798;10.382;2023-05-10T11:32:37;7.23;;;6.10;;
12511;SDS011;6321;53.798;10.382;2023-05-10T11:35:12;7.87;;;6.07;;
12511;SDS011;6321;53.798;10.382;2023-05-10T11:37:38;6.60;;;5.97;;
12511;SDS011;6321;53.798;10.382;2023-05-10T11:40:07;9.63;;;6.90;;
12511;SDS011;6321;53.798;10.382;2023-05-10T11:42:35;6.93;;;6.33;;
12511;SDS011;6321;53.798;10.382;2023-05-10T11:45:01;7.77;;;7.13;;
12511;SDS011;6321;53.798;10.382;2023-05-10T11:47:27;8.67;;;7.37;;
12511;SDS011;6321;53.798;10.382;2023-05-10T11:49:53;9.87;;;8.17;;
12511;SDS011;6321;53.798;10.382;2023-05-10T11:52:19;8.83;;;7.87;;
12511;SDS011;6321;53.798;10.382;2023-05-10T11:54:50;10.63;;;8.40;;
12511;SDS011;6321;53.798;10.382;2023-05-10T11:57:17;9.43;;;8.53;;
12511;SDS011;6321;53.798;10.382;2023-05-10T11:59:45;9.07;;;8.27;;
12511;SDS011;6321;53.798;10.382;2023-05-10T12:02:11;9.47;;;8.50;;
12511;SDS011;6321;53.798;10.382;2023-05-10T12:04:37;11.43;;;9.63;;
12511;SDS011;6321;53.798;10.382;2023-05-10T12:07:03;12.17;;;9.37;;
12511;SDS011;6321;53.798;10.382;2023-05-10T12:09:29;10.70;;;9.70;;
12511;SDS011;6321;53.798;10.382;2023-05-10T12:11:55;10.33;;;9.43;;
12511;SDS011;6321;53.798;10.382;2023-05-10T12:14:24;11.50;;;10.40;;
12511;SDS011;6321;53.798;10.382;2023-05-10T12:16:50;12.27;;;11.07;;
12511;SDS011;6321;53.798;10.382;2023-05-10T12:19:19;10.77;;;9.77;;
12511;SDS011;6321;53.798;10.382;2023-05-10T12:21:46;12.17;;;10.13;;
12511;SDS011;6321;53.798;10.382;2023-05-10T12:24:12;11.83;;;10.50;;
12511;SDS011;6321;53.798;10.382;2023-05-10T12:26:41;11.90;;;10.80;;
12511;SDS011;6321;53.798;10.382;2023-05-10T12:31:49;13.17;;;11.37;;
12511;SDS011;6321;53.798;10.382;2023-05-10T12:34:31;12.30;;;11.17;;
12511;SDS011;6321;53.798;10.382;2023-05-10T12:36:57;12.00;;;10.63;;
12511;SDS011;6321;53.798;10.382;2023-05-10T12:39:24;12.63;;;11.30;;
12511;SDS011;6321;53.798;10.382;2023-05-10T12:41:50;13.37;;;12.17;;
12511;SDS011;6321;53.798;10.382;2023-05-10T12:44:16;14.77;;;12.27;;
12511;SDS011;6321;53.798;10.382;2023-05-10T12:46:42;12.70;;;11.37;;
12511;SDS011;6321;53.798;10.382;2023-05-10T12:49:08;12.40;;;11.30;;
12511;SDS011;6321;53.798;10.382;2023-05-10T12:51:34;13.27;;;11.97;;
12511;SDS011;6321;53.798;10.382;2023-05-10T12:54:00;13.17;;;11.83;;
12511;SDS011;6321;53.798;10.382;2023-05-10T12:56:26;12.90;;;11.70;;
12511;SDS011;6321;53.798;10.382;2023-05-10T12:58:52;12.60;;;11.37;;
12511;SDS011;6321;53.798;10.382;2023-05-10T13:01:18;13.10;;;11.90;;
12511;SDS011;6321;53.798;10.382;2023-05-10T13:03:44;13.30;;;12.03;;
12511;SDS011;6321;53.798;10.382;2023-05-10T13:06:10;12.97;;;11.77;;
12511;SDS011;6321;53.798;10.382;2023-05-10T13:08:38;12.67;;;11.47;;
12511;SDS011;6321;53.798;10.382;2023-05-10T13:11:05;13.63;;;11.63;;
12511;SDS011;6321;53.798;10.382;2023-05-10T13:13:31;13.23;;;11.27;;
12511;SDS011;6321;53.798;10.382;2023-05-10T13:15:57;12.77;;;11.57;;
12511;SDS011;6321;53.798;10.382;2023-05-10T13:18:23;11.90;;;10.73;;
12511;SDS011;6321;53.798;10.382;2023-05-10T13:20:51;12.63;;;11.43;;
12511;SDS011;6321;53.798;10.382;2023-05-10T13:23:17;13.47;;;11.97;;
12511;SDS011;6321;53.798;10.382;2023-05-10T13:25:43;12.40;;;11.17;;
12511;SDS011;6321;53.798;10.382;2023-05-10T13:28:09;11.67;;;10.47;;
12511;SDS011;6321;53.798;10.382;2023-05-10T13:30:35;11.50;;;10.40;;
12511;SDS011;6321;53.798;10.382;2023-05-10T13:33:01;11.07;;;10.07;;
12511;SDS011;6321;53.798;10.382;2023-05-10T13:35:27;11.20;;;10.20;;
12511;SDS011;6321;53.798;10.382;2023-05-10T13:37:53;11.47;;;10.37;;
12511;SDS011;6321;53.798;10.382;2023-05-10T13:40:21;10.77;;;9.77;;
12511;SDS011;6321;53.798;10.382;2023-05-10T13:42:47;10.20;;;9.20;;
12511;SDS011;6321;53.798;10.382;2023-05-10T13:45:13;10.00;;;9.10;;
12511;SDS011;6321;53.798;10.382;2023-05-10T13:47:39;10.17;;;9.27;;
12511;SDS011;6321;53.798;10.382;2023-05-10T13:50:06;10.00;;;9.00;;
12511;SDS011;6321;53.798;10.382;2023-05-10T13:52:32;10.10;;;9.00;;
12511;SDS011;6321;53.798;10.382;2023-05-10T13:54:58;11.17;;;9.23;;
12511;SDS011;6321;53.798;10.382;2023-05-10T13:57:24;10.40;;;9.33;;
12511;SDS011;6321;53.798;10.382;2023-05-10T13:59:50;11.07;;;10.00;;
12511;SDS011;6321;53.798;10.382;2023-05-10T14:02:16;10.33;;;9.20;;
12511;SDS011;6321;53.798;10.382;2023-05-10T14:04:42;10.40;;;9.40;;
12511;SDS011;6321;53.798;10.382;2023-05-10T14:07:08;9.30;;;8.50;;
12511;SDS011;6321;53.798;10.382;2023-05-10T14:09:34;10.20;;;9.27;;
12511;SDS011;6321;53.798;10.382;2023-05-10T14:12:00;8.60;;;7.03;;
12511;SDS011;6321;53.798;10.382;2023-05-10T14:14:27;7.50;;;6.83;;
12511;SDS011;6321;53.798;10.382;2023-05-10T14:16:54;6.83;;;6.17;;
12511;SDS011;6321;53.798;10.382;2023-05-10T14:19:20;7.20;;;6.60;;
12511;SDS011;6321;53.798;10.382;2023-05-10T14:21:46;7.10;;;6.40;;
12511;SDS011;6321;53.798;10.382;2023-05-10T14:24:12;7.70;;;6.83;;
12511;SDS011;6321;53.798;10.382;2023-05-10T14:26:38;7.17;;;6.57;;
12511;SDS011;6321;53.798;10.382;2023-05-10T14:29:04;8.20;;;7.40;;
12511;SDS011;6321;53.798;10.382;2023-05-10T14:31:30;8.23;;;7.43;;
12511;SDS011;6321;53.798;10.382;2023-05-10T14:33:56;9.23;;;8.33;;
12511;SDS011;6321;53.798;10.382;2023-05-10T14:36:22;7.70;;;7.00;;
12511;SDS011;6321;53.798;10.382;2023-05-10T14:38:48;7.47;;;6.83;;
12511;SDS011;6321;53.798;10.382;2023-05-10T14:41:15;7.37;;;6.70;;
12511;SDS011;6321;53.798;10.382;2023-05-10T14:43:42;6.83;;;6.23;;
12511;SDS011;6321;53.798;10.382;2023-05-10T14:46:08;7.47;;;6.70;;
12511;SDS011;6321;53.798;10.382;2023-05-10T14:48:34;6.83;;;6.23;;
12511;SDS011;6321;53.798;10.382;2023-05-10T14:51:00;6.13;;;5.57;;
12511;SDS011;6321;53.798;10.382;2023-05-10T14:53:26;7.43;;;6.73;;
12511;SDS011;6321;53.798;10.382;2023-05-10T14:55:52;6.87;;;5.83;;
12511;SDS011;6321;53.798;10.382;2023-05-10T14:58:18;7.43;;;5.90;;
12511;SDS011;6321;53.798;10.382;2023-05-10T15:00:44;5.87;;;5.37;;
12511;SDS011;6321;53.798;10.382;2023-05-10T15:03:11;7.00;;;6.40;;
12511;SDS011;6321;53.798;10.382;2023-05-10T15:05:37;6.00;;;5.50;;
12511;SDS011;6321;53.798;10.382;2023-05-10T15:08:03;5.53;;;4.90;;
12511;SDS011;6321;53.798;10.382;2023-05-10T15:10:30;5.23;;;4.80;;
12511;SDS011;6321;53.798;10.382;2023-05-10T15:12:57;5.53;;;5.03;;
12511;SDS011;6321;53.798;10.382;2023-05-10T15:15:23;5.33;;;4.93;;